Time;durP1;ratioP1;P1;durP2;ratioP2;P2;SDS_P1;SDS_P2;PMS_P1;PMS_P2;Temp;Humidity;BMP_temperature;BMP_pressure;BME280_temperature;BME280_humidity;BME280_pressure;Samples;Min_cycle;Max_cycle;Signal;HPM_P1;HPM_P2
2021/03/18 00:02:02;;;;;;;9.15;8.35;;;-0.40;98.10;;;;;;5056839;28;20496;-78
2021/03/18 00:04:30;;;;;;;8.10;7.28;;;-0.40;98.10;;;;;;5052243;28;20040;-78
2021/03/18 00:06:57;;;;;;;10.85;7.95;;;-0.40;98.30;;;;;;5051571;28;20042;-78
2021/03/18 00:09:25;;;;;;;8.40;7.40;;;-0.40;98.40;;;;;;5051055;28;20045;-78
2021/03/18 00:11:53;;;;;;;9.85;8.20;;;-0.40;98.40;;;;;;5049775;28;20408;-78
2021/03/18 00:14:24;;;;;;;8.55;7.55;;;-0.40;98.30;;;;;;5053430;28;20068;-84
2021/03/18 00:16:51;;;;;;;10.23;7.25;;;-0.40;98.20;;;;;;5071442;28;20487;-78
2021/03/18 00:19:22;;;;;;;13.23;7.78;;;-0.40;98.30;;;;;;5066243;28;20487;-78
2021/03/18 00:21:49;;;;;;;7.53;6.53;;;-0.50;98.20;;;;;;5031722;28;20064;-78
2021/03/18 00:24:18;;;;;;;10.25;7.90;;;-0.50;98.30;;;;;;5030855;28;20080;-78
2021/03/18 00:26:45;;;;;;;7.90;6.88;;;-0.50;98.30;;;;;;5067966;28;20060;-78
2021/03/18 00:29:13;;;;;;;8.90;8.10;;;-0.50;98.30;;;;;;5070279;28;20037;-78
2021/03/18 00:31:54;;;;;;;7.68;6.63;;;-0.50;98.30;;;;;;5060460;28;20045;-78
2021/03/18 00:34:23;;;;;;;9.52;7.47;;;-0.40;98.40;;;;;;5033536;28;20049;-78
2021/03/18 00:36:51;;;;;;;12.43;8.15;;;-0.50;98.30;;;;;;5049615;28;20048;-78
2021/03/18 00:39:18;;;;;;;8.65;7.18;;;-0.50;98.40;;;;;;5037143;28;20076;-78
2021/03/18 00:41:46;;;;;;;11.48;9.48;;;-0.50;98.40;;;;;;5040650;28;20065;-79
2021/03/18 00:44:13;;;;;;;10.70;7.05;;;-0.40;98.40;;;;;;5058049;28;20488;-78
2021/03/18 00:46:41;;;;;;;8.73;7.45;;;-0.50;98.40;;;;;;5049782;28;20527;-78
2021/03/18 00:49:08;;;;;;;9.93;8.45;;;-0.50;98.80;;;;;;5064353;28;20052;-78
2021/03/18 00:51:38;;;;;;;13.10;9.07;;;-0.40;98.70;;;;;;5070697;28;20051;-78
2021/03/18 00:54:06;;;;;;;14.18;10.30;;;-0.50;98.60;;;;;;5054813;28;20040;-78
2021/03/18 00:56:34;;;;;;;11.38;8.77;;;-0.60;98.60;;;;;;5070719;28;20044;-78
2021/03/18 00:59:02;;;;;;;9.48;8.45;;;-0.60;98.50;;;;;;5054345;28;20388;-78
2021/03/18 01:01:32;;;;;;;17.13;10.35;;;-0.60;98.60;;;;;;5068687;28;20055;-78
2021/03/18 01:04:04;;;;;;;11.38;8.07;;;-0.70;98.60;;;;;;5070171;28;20048;-78
2021/03/18 01:06:36;;;;;;;11.70;10.48;;;-0.70;98.70;;;;;;5074880;28;20056;-78
2021/03/18 01:09:06;;;;;;;8.52;7.55;;;-0.70;98.80;;;;;;5066489;28;20044;-78
2021/03/18 01:11:36;;;;;;;10.15;7.30;;;-0.90;98.80;;;;;;5056813;28;20052;-78
2021/03/18 01:14:07;;;;;;;7.68;7.00;;;-0.90;99.00;;;;;;5074139;28;20048;-78
2021/03/18 01:16:41;;;;;;;9.38;8.55;;;-0.90;99.00;;;;;;5057750;28;20032;-78
2021/03/18 01:19:10;;;;;;;9.27;8.40;;;-1.00;99.20;;;;;;5057792;28;20572;-78
2021/03/18 01:21:43;;;;;;;10.45;7.97;;;-1.00;99.40;;;;;;5057268;28;20048;-78
2021/03/18 01:24:12;;;;;;;10.27;8.13;;;-1.00;99.30;;;;;;5073206;28;20052;-78
2021/03/18 01:26:43;;;;;;;8.90;8.10;;;-1.10;99.20;;;;;;5073937;28;20049;-78
2021/03/18 01:29:12;;;;;;;11.80;10.57;;;-1.00;99.70;;;;;;5068379;28;20048;-78
2021/03/18 01:31:41;;;;;;;14.88;8.55;;;-1.20;99.40;;;;;;5074453;28;20049;-78
2021/03/18 01:34:12;;;;;;;11.65;8.25;;;-1.30;99.60;;;;;;5075179;28;20041;-78
2021/03/18 01:36:40;;;;;;;8.83;8.03;;;-1.30;99.70;;;;;;5073423;28;20049;-78
2021/03/18 01:39:08;;;;;;;8.75;7.43;;;-1.30;99.80;;;;;;5064854;28;20411;-78
2021/03/18 01:41:36;;;;;;;8.63;7.80;;;-1.30;99.70;;;;;;5073123;28;20049;-78
2021/03/18 01:44:04;;;;;;;9.50;8.05;;;-1.30;99.90;;;;;;5074395;28;20055;-78
2021/03/18 01:46:32;;;;;;;10.48;8.75;;;-1.30;99.70;;;;;;5074404;28;20063;-78
2021/03/18 01:49:00;;;;;;;14.77;9.15;;;-1.30;99.90;;;;;;5056720;28;20055;-78
2021/03/18 01:51:28;;;;;;;8.95;7.80;;;-1.30;99.80;;;;;;5033962;28;20045;-78
2021/03/18 01:53:55;;;;;;;13.20;8.57;;;-1.30;99.60;;;;;;5034669;28;20483;-78
2021/03/18 01:56:23;;;;;;;9.82;7.63;;;-1.30;99.60;;;;;;5069328;28;20037;-78
2021/03/18 01:58:51;;;;;;;10.02;7.50;;;-1.30;99.50;;;;;;5054603;28;20053;-78
2021/03/18 02:01:19;;;;;;;11.65;7.82;;;-1.30;99.50;;;;;;5052402;28;20052;-78
2021/03/18 02:03:47;;;;;;;10.48;8.40;;;-1.30;99.40;;;;;;5052481;28;20048;-79
2021/03/18 02:06:20;;;;;;;11.50;7.50;;;-1.30;99.70;;;;;;5054108;28;20472;-78
2021/03/18 02:08:48;;;;;;;8.77;7.05;;;-1.40;99.30;;;;;;5040563;28;20045;-79
2021/03/18 02:11:15;;;;;;;10.02;7.13;;;-1.30;99.40;;;;;;5036141;28;20068;-79
2021/03/18 02:13:43;;;;;;;12.45;9.52;;;-1.40;99.40;;;;;;5055026;28;20427;-79
2021/03/18 02:16:13;;;;;;;9.73;8.20;;;-1.30;99.40;;;;;;5052699;28;20048;-79
2021/03/18 02:18:55;;;;;;;10.35;8.38;;;-1.30;99.40;;;;;;5055662;28;20060;-79
2021/03/18 02:21:31;;;;;;;14.93;9.68;;;-1.30;99.50;;;;;;5072977;28;20048;-79
2021/03/18 02:24:19;;;;;;;8.48;7.53;;;-1.30;99.40;;;;;;5073770;28;20051;-79
2021/03/18 02:27:28;;;;;;;14.10;8.70;;;-1.30;99.30;;;;;;5016950;28;20042;-84
2021/03/18 02:30:50;;;;;;;12.85;8.52;;;-1.30;99.30;;;;;;5018448;28;20041;-84
2021/03/18 02:34:10;;;;;;;9.85;7.78;;;-1.20;99.40;;;;;;5032556;28;20044;-84
2021/03/18 02:37:06;;;;;;;8.02;7.28;;;-1.30;99.40;;;;;;5043193;28;20061;-84
2021/03/18 02:39:42;;;;;;;8.07;7.00;;;-1.30;99.40;;;;;;5041214;28;20041;-84
2021/03/18 02:42:32;;;;;;;11.55;8.25;;;-1.30;99.50;;;;;;5032367;28;20731;-84
2021/03/18 02:45:11;;;;;;;9.90;7.10;;;-1.40;99.60;;;;;;5020686;28;20412;-84
2021/03/18 02:48:07;;;;;;;8.95;8.05;;;-1.30;99.50;;;;;;5025819;28;20051;-84
2021/03/18 02:51:25;;;;;;;7.53;6.82;;;-1.20;99.50;;;;;;5040096;28;20407;-84
2021/03/18 02:57:20;;;;;;;11.93;10.50;;;-1.20;99.50;;;;;;5041499;28;20037;-84
2021/03/18 03:00:06;;;;;;;10.77;9.65;;;-1.10;99.40;;;;;;5021546;28;20053;-84
2021/03/18 03:03:07;;;;;;;16.23;9.57;;;-1.10;99.30;;;;;;5045229;28;20053;-84
2021/03/18 03:06:31;;;;;;;18.38;9.30;;;-1.20;99.40;;;;;;5005101;28;20049;-84
2021/03/18 03:10:05;;;;;;;11.13;7.63;;;-1.20;99.50;;;;;;5013552;28;20045;-84
2021/03/18 03:13:06;;;;;;;15.18;9.60;;;-1.20;99.40;;;;;;5018764;28;20420;-84
2021/03/18 03:16:51;;;;;;;12.50;9.30;;;-1.30;99.40;;;;;;5018806;28;20160;-84
2021/03/18 03:20:40;;;;;;;17.98;10.00;;;-1.30;99.50;;;;;;4997790;28;20046;-84
2021/03/18 03:23:53;;;;;;;12.50;10.38;;;-1.20;99.70;;;;;;4966672;28;20042;-84
2021/03/18 03:27:13;;;;;;;12.98;9.57;;;-1.30;99.70;;;;;;4962814;28;20055;-84
2021/03/18 03:30:22;;;;;;;17.13;10.98;;;-1.30;99.60;;;;;;4920951;29;20058;-84
2021/03/18 03:33:25;;;;;;;15.60;10.88;;;-1.30;99.60;;;;;;4922786;29;20051;-85
2021/03/18 03:36:01;;;;;;;20.80;13.18;;;-1.30;99.40;;;;;;4952592;29;20039;-84
2021/03/18 03:38:50;;;;;;;18.45;10.15;;;-1.20;99.40;;;;;;4946457;29;20054;-84
2021/03/18 03:42:01;;;;;;;16.63;12.98;;;-1.20;99.00;;;;;;4942561;28;20051;-84
2021/03/18 03:45:24;;;;;;;17.40;12.07;;;-1.10;99.40;;;;;;4930188;28;20050;-84
2021/03/18 03:48:28;;;;;;;19.60;12.05;;;-1.20;99.30;;;;;;4995902;28;20053;-84
2021/03/18 03:51:30;;;;;;;20.08;10.15;;;-1.20;99.30;;;;;;5000260;28;20046;-84
2021/03/18 03:54:23;;;;;;;16.55;10.32;;;-1.10;99.50;;;;;;5011288;28;20496;-84
2021/03/18 03:58:39;;;;;;;23.67;13.35;;;-1.10;99.10;;;;;;5056518;28;20478;-84
2021/03/18 04:01:43;;;;;;;20.05;10.82;;;-1.10;99.10;;;;;;5041090;28;20495;-84
2021/03/18 04:04:48;;;;;;;14.77;8.23;;;-1.10;99.10;;;;;;5034774;28;20041;-84
2021/03/18 04:08:23;;;;;;;13.20;10.13;;;-1.10;98.70;;;;;;5050651;28;20057;-84
2021/03/18 04:11:47;;;;;;;23.48;11.18;;;-1.10;99.00;;;;;;4981470;28;20061;-85
2021/03/18 04:14:53;;;;;;;22.83;11.23;;;-1.10;99.00;;;;;;4986412;28;20053;-84
2021/03/18 04:19:00;;;;;;;;;;;;;;;;;;;;;
2021/03/18 04:22:49;;;;;;;19.52;12.07;;;-1.10;99.30;;;;;;4981810;28;20046;-85
2021/03/18 04:26:16;;;;;;;22.95;12.88;;;-1.10;98.60;;;;;;4943274;28;20057;-85
2021/03/18 04:29:39;;;;;;;26.40;13.55;;;-1.10;99.00;;;;;;4912440;28;20047;-85
2021/03/18 04:33:41;;;;;;;19.92;11.18;;;-1.10;98.90;;;;;;4947069;29;20047;-84
2021/03/18 04:42:09;;;;;;;20.30;12.00;;;-1.10;99.00;;;;;;4973725;28;20046;-84
2021/03/18 04:45:01;;;;;;;25.58;16.48;;;-1.10;98.60;;;;;;4971643;28;20047;-85
2021/03/18 04:47:57;;;;;;;;;;;-1.10;98.90;;;;;;4975001;28;20047;-84
2021/03/18 04:50:48;;;;;;;;;;;-1.20;98.80;;;;;;4951233;28;20357;-85
2021/03/18 04:59:54;;;;;;;;;;;;;;;;;;;;;
2021/03/18 05:04:33;;;;;;;26.50;15.93;;;-1.00;99.10;;;;;;4924688;28;20108;-85
2021/03/18 05:08:02;;;;;;;19.05;12.80;;;-1.10;98.90;;;;;;4943949;28;20055;-79
2021/03/18 05:10:35;;;;;;;28.27;16.67;;;-1.10;99.10;;;;;;4970728;28;20078;-79
2021/03/18 05:13:07;;;;;;;29.55;15.05;;;-1.10;99.00;;;;;;4954528;28;20383;-78
2021/03/18 05:15:38;;;;;;;30.33;18.05;;;-1.10;99.00;;;;;;4989666;28;20042;-79
2021/03/18 05:18:09;;;;;;;26.77;15.43;;;-1.00;99.40;;;;;;4989961;28;20050;-79
2021/03/18 05:20:38;;;;;;;31.80;15.82;;;-1.10;99.50;;;;;;5032462;28;20055;-79
2021/03/18 05:23:08;;;;;;;29.30;13.77;;;-1.10;99.60;;;;;;5017538;28;20049;-79
2021/03/18 05:25:36;;;;;;;21.65;14.70;;;-1.20;99.40;;;;;;5032737;28;20052;-79
2021/03/18 05:28:06;;;;;;;23.92;14.40;;;-1.10;99.70;;;;;;5051322;28;20056;-79
2021/03/18 05:30:34;;;;;;;25.63;12.60;;;-1.20;99.70;;;;;;5051304;28;20052;-79
2021/03/18 05:33:04;;;;;;;30.27;13.55;;;-1.20;99.50;;;;;;5033424;28;20045;-79
2021/03/18 05:35:41;;;;;;;23.42;14.40;;;-1.20;99.50;;;;;;5051052;28;20053;-79
2021/03/18 05:38:11;;;;;;;25.98;14.98;;;-1.20;99.50;;;;;;5053175;28;20053;-79
2021/03/18 05:40:40;;;;;;;31.85;17.33;;;-1.20;99.70;;;;;;5070678;28;20044;-79
2021/03/18 05:43:08;;;;;;;28.55;14.95;;;-1.20;99.60;;;;;;5053775;28;20052;-82
2021/03/18 05:45:38;;;;;;;30.48;16.58;;;-1.20;99.50;;;;;;5044006;28;20059;-81
2021/03/18 05:48:06;;;;;;;30.42;15.48;;;-1.10;99.60;;;;;;5091030;28;20048;-81
2021/03/18 05:50:37;;;;;;;26.55;17.65;;;-1.10;99.60;;;;;;5055075;28;20049;-80
2021/03/18 05:53:05;;;;;;;30.08;16.70;;;-1.10;99.60;;;;;;5073214;28;20041;-81
2021/03/18 05:55:34;;;;;;;34.47;20.55;;;-1.10;99.50;;;;;;5060753;28;20044;-81
2021/03/18 05:58:04;;;;;;;29.10;15.35;;;-1.10;99.60;;;;;;5078064;28;20040;-82
2021/03/18 06:00:34;;;;;;;24.15;13.98;;;-1.10;99.30;;;;;;5060643;28;20059;-80
2021/03/18 06:03:03;;;;;;;30.52;18.40;;;-1.10;99.30;;;;;;5095805;28;20414;-80
2021/03/18 06:05:31;;;;;;;30.63;15.82;;;-1.10;99.40;;;;;;5074766;28;20040;-83
2021/03/18 06:08:00;;;;;;;28.95;17.60;;;-1.00;99.30;;;;;;5057849;28;20063;-80
2021/03/18 06:10:28;;;;;;;29.83;16.77;;;-1.00;99.30;;;;;;5058135;28;20051;-81
2021/03/18 06:12:57;;;;;;;30.00;17.95;;;-0.90;98.90;;;;;;5057383;28;20055;-81
2021/03/18 06:15:29;;;;;;;26.48;15.43;;;-1.00;99.30;;;;;;5073946;28;20055;-81
2021/03/18 06:17:57;;;;;;;29.50;16.00;;;-0.90;99.00;;;;;;5041261;28;20044;-81
2021/03/18 06:20:29;;;;;;;24.35;15.57;;;-1.00;99.00;;;;;;5057175;28;20044;-80
2021/03/18 06:22:59;;;;;;;27.35;17.20;;;-1.00;99.10;;;;;;5072772;28;20045;-81
2021/03/18 06:25:32;;;;;;;27.55;14.40;;;-0.80;98.80;;;;;;5072871;28;20415;-81
2021/03/18 06:28:19;;;;;;;27.90;19.30;;;-0.90;98.70;;;;;;5056962;28;20048;-83
2021/03/18 06:30:57;;;;;;;23.65;13.82;;;-0.80;98.60;;;;;;5073736;28;20049;-83
2021/03/18 06:33:27;;;;;;;25.38;16.25;;;-0.80;98.70;;;;;;5075467;28;20045;-83
2021/03/18 06:36:32;;;;;;;32.83;16.95;;;-0.80;98.40;;;;;;5078123;28;20036;-82
2021/03/18 06:39:10;;;;;;;27.13;16.15;;;-0.70;98.40;;;;;;5065929;28;20044;-82
2021/03/18 06:41:41;;;;;;;28.15;16.08;;;-0.70;98.30;;;;;;5019692;28;20594;-79
2021/03/18 06:44:25;;;;;;;30.52;16.45;;;-0.60;98.40;;;;;;5052998;28;20048;-79
2021/03/18 06:47:07;;;;;;;26.48;16.70;;;-0.50;97.70;;;;;;5066930;28;20044;-80
2021/03/18 06:49:35;;;;;;;27.20;15.25;;;-0.40;97.20;;;;;;5055518;28;20051;-79
2021/03/18 06:52:06;;;;;;;25.42;16.48;;;-0.40;97.30;;;;;;5072847;28;20044;-79
2021/03/18 06:54:39;;;;;;;24.83;14.90;;;-0.30;97.00;;;;;;5073936;28;20048;-80
2021/03/18 06:57:06;;;;;;;24.45;17.27;;;-0.10;97.20;;;;;;5056037;28;20052;-79
2021/03/18 06:59:37;;;;;;;23.38;14.10;;;-0.20;96.40;;;;;;5073616;28;20044;-80
2021/03/18 07:02:21;;;;;;;21.90;14.68;;;-0.50;96.40;;;;;;5055546;28;20056;-80
2021/03/18 07:04:54;;;;;;;25.35;14.55;;;-0.50;96.90;;;;;;5076713;28;20051;-79
2021/03/18 07:07:25;;;;;;;23.58;17.20;;;-0.50;96.70;;;;;;5091800;28;20056;-77
2021/03/18 07:09:54;;;;;;;21.47;13.87;;;-0.60;96.50;;;;;;5076586;28;20048;-77
2021/03/18 07:12:26;;;;;;;;;;;-0.60;97.20;;;;;;5072349;28;20045;-76
2021/03/18 07:14:56;;;;;;;25.10;14.98;;;-0.60;96.60;;;;;;5071904;28;19925;-76
2021/03/18 07:17:32;;;;;;;23.42;15.88;;;-0.60;96.70;;;;;;5068721;28;20736;-76
2021/03/18 07:20:18;;;;;;;28.38;17.63;;;-0.50;96.70;;;;;;5065827;28;20392;-76
2021/03/18 07:22:48;;;;;;;29.05;16.52;;;-0.50;96.70;;;;;;5051647;28;20061;-75
2021/03/18 07:25:18;;;;;;;19.30;15.20;;;-0.40;96.70;;;;;;5066333;28;20040;-76
2021/03/18 07:27:53;;;;;;;28.08;18.80;;;-0.40;96.30;;;;;;5070389;28;20049;-75
2021/03/18 07:30:33;;;;;;;21.08;13.27;;;-0.50;96.20;;;;;;5034636;28;20056;-76
2021/03/18 07:33:02;;;;;;;25.10;16.13;;;-0.60;96.30;;;;;;5051632;28;20037;-76
2021/03/18 07:35:32;;;;;;;27.30;20.25;;;-0.60;96.40;;;;;;5051516;28;20037;-75
2021/03/18 07:38:00;;;;;;;23.77;15.75;;;-0.60;97.20;;;;;;5051784;28;20061;-75
2021/03/18 07:40:29;;;;;;;22.50;16.88;;;-0.60;97.60;;;;;;5071582;28;20037;-79
2021/03/18 07:43:02;;;;;;;24.38;16.63;;;-0.50;96.90;;;;;;5054295;28;20668;-78
2021/03/18 07:45:29;;;;;;;22.80;15.20;;;-0.50;96.40;;;;;;5072287;28;20423;-78
2021/03/18 07:47:59;;;;;;;23.42;15.68;;;-0.50;96.30;;;;;;5071131;28;20036;-78
2021/03/18 07:50:33;;;;;;;27.70;16.67;;;-0.60;96.20;;;;;;5072642;28;20052;-78
2021/03/18 07:53:02;;;;;;;24.42;16.13;;;-0.60;96.20;;;;;;5070908;28;20049;-78
2021/03/18 07:55:32;;;;;;;29.27;17.63;;;-0.60;96.90;;;;;;5072036;28;20087;-79
2021/03/18 07:58:02;;;;;;;23.40;16.63;;;-0.60;97.00;;;;;;5055421;28;20052;-78
2021/03/18 08:00:33;;;;;;;32.05;19.17;;;-0.40;96.90;;;;;;5044339;28;20047;-78
2021/03/18 08:03:20;;;;;;;24.58;14.95;;;-0.40;96.70;;;;;;5065705;28;20373;-78
2021/03/18 08:05:48;;;;;;;30.05;16.60;;;-0.30;96.10;;;;;;5071362;28;20057;-78
2021/03/18 08:08:31;;;;;;;30.33;15.35;;;-0.20;96.10;;;;;;5056879;28;20037;-78
2021/03/18 08:11:32;;;;;;;31.67;16.70;;;-0.30;95.80;;;;;;5067116;28;20049;-78
2021/03/18 08:14:11;;;;;;;25.47;18.23;;;-0.30;96.50;;;;;;5070199;28;20506;-78
2021/03/18 08:16:39;;;;;;;27.67;16.00;;;-0.30;96.00;;;;;;5067955;28;20040;-78
2021/03/18 08:19:11;;;;;;;26.25;20.27;;;-0.30;96.50;;;;;;5052184;28;20041;-77
2021/03/18 08:21:44;;;;;;;26.90;15.32;;;-0.30;96.80;;;;;;5070103;28;20075;-78
2021/03/18 08:24:14;;;;;;;27.05;13.77;;;-0.10;96.80;;;;;;5069698;28;20499;-78
2021/03/18 08:26:47;;;;;;;27.15;16.83;;;0.10;95.90;;;;;;5070350;28;20055;-78
2021/03/18 08:29:16;;;;;;;30.45;18.92;;;0.30;95.70;;;;;;5068157;28;20071;-80
2021/03/18 08:31:48;;;;;;;25.77;16.83;;;0.20;95.30;;;;;;5068794;28;20396;-78
2021/03/18 08:34:39;;;;;;;33.13;20.48;;;0.40;95.90;;;;;;5070440;28;20880;-78
2021/03/18 08:37:08;;;;;;;36.13;19.63;;;0.40;96.20;;;;;;5052090;28;20040;-78
2021/03/18 08:39:49;;;;;;;27.35;19.08;;;0.20;96.20;;;;;;5056005;28;20045;-80
2021/03/18 08:42:31;;;;;;;29.93;19.53;;;0.10;95.80;;;;;;5032995;28;20049;-80
2021/03/18 08:45:05;;;;;;;28.75;18.70;;;0.10;97.10;;;;;;5036318;28;20071;-79
2021/03/18 08:47:45;;;;;;;40.78;19.92;;;0.10;95.80;;;;;;5052281;28;20048;-79
2021/03/18 08:50:25;;;;;;;22.73;14.95;;;0.10;95.70;;;;;;5052768;28;20053;-78
2021/03/18 08:52:54;;;;;;;30.52;17.08;;;0.10;96.70;;;;;;5064466;28;20079;-79
2021/03/18 08:55:34;;;;;;;23.70;16.27;;;0.30;95.00;;;;;;5069119;28;20372;-79
2021/03/18 08:58:03;;;;;;;29.52;18.83;;;0.30;95.20;;;;;;5070651;28;20057;-79
2021/03/18 09:00:35;;;;;;;28.25;19.20;;;0.30;95.80;;;;;;5069927;28;20059;-79
2021/03/18 09:03:06;;;;;;;26.48;17.08;;;0.40;94.60;;;;;;5067970;28;20387;-79
2021/03/18 09:05:36;;;;;;;26.80;18.23;;;0.50;95.90;;;;;;5069964;28;20049;-80
2021/03/18 09:08:07;;;;;;;23.20;17.00;;;0.40;95.30;;;;;;5069278;28;20401;-80
2021/03/18 09:10:36;;;;;;;23.83;15.70;;;0.60;94.80;;;;;;5070198;28;20052;-79
2021/03/18 09:13:16;;;;;;;21.02;15.88;;;0.90;93.90;;;;;;5070560;28;20503;-79
2021/03/18 09:15:47;;;;;;;22.75;15.40;;;2.00;91.40;;;;;;5070152;28;20052;-79
2021/03/18 09:18:18;;;;;;;19.92;14.75;;;2.20;89.60;;;;;;5061467;28;20064;-79
2021/03/18 09:21:08;;;;;;;16.83;13.95;;;3.00;88.50;;;;;;5051028;28;20121;-80
2021/03/18 09:23:39;;;;;;;27.55;17.17;;;2.50;85.60;;;;;;5050221;28;20053;-79
2021/03/18 09:26:09;;;;;;;21.60;15.17;;;1.70;91.20;;;;;;5052594;28;20057;-79
2021/03/18 09:28:42;;;;;;;24.88;14.88;;;1.60;91.90;;;;;;5073748;28;20040;-79
2021/03/18 09:31:10;;;;;;;21.98;14.48;;;1.80;92.30;;;;;;5073917;28;20045;-79
2021/03/18 09:33:40;;;;;;;27.25;17.60;;;1.70;91.40;;;;;;5056741;28;20403;-79
2021/03/18 09:36:14;;;;;;;24.15;19.15;;;1.30;92.10;;;;;;5074336;28;20487;-79
2021/03/18 09:39:04;;;;;;;17.98;15.13;;;1.20;93.30;;;;;;5073434;28;20063;-78
2021/03/18 09:41:38;;;;;;;30.95;19.60;;;1.30;92.70;;;;;;5074057;28;20507;-79
2021/03/18 09:44:11;;;;;;;21.65;16.65;;;1.20;90.60;;;;;;5074454;28;20049;-78
2021/03/18 09:46:42;;;;;;;19.60;14.30;;;1.20;93.60;;;;;;5074538;28;20056;-79
2021/03/18 09:49:24;;;;;;;19.10;14.30;;;1.20;90.40;;;;;;5074226;28;20061;-79
2021/03/18 09:51:53;;;;;;;23.10;14.32;;;1.60;90.30;;;;;;5048872;28;20037;-79
2021/03/18 09:54:23;;;;;;;16.23;10.43;;;1.70;90.80;;;;;;5053323;28;20059;-78
2021/03/18 09:56:52;;;;;;;17.20;14.35;;;1.60;87.50;;;;;;5054524;28;20056;-79
2021/03/18 09:59:22;;;;;;;21.33;15.30;;;1.70;89.40;;;;;;5054010;28;20041;-79
2021/03/18 10:01:50;;;;;;;23.10;15.75;;;1.70;91.90;;;;;;5053441;28;20428;-79
2021/03/18 10:04:23;;;;;;;23.83;19.05;;;1.40;91.10;;;;;;5035712;28;20041;-79
2021/03/18 10:06:54;;;;;;;23.30;16.55;;;1.30;92.10;;;;;;5052528;28;20037;-79
2021/03/18 10:09:27;;;;;;;19.45;13.25;;;1.20;92.30;;;;;;5036610;28;20052;-79
2021/03/18 10:11:55;;;;;;;15.80;13.25;;;1.40;90.70;;;;;;5053375;28;20045;-79
2021/03/18 10:14:26;;;;;;;23.45;13.98;;;1.40;90.30;;;;;;5053252;28;20428;-79
2021/03/18 10:17:12;;;;;;;16.27;11.60;;;1.60;88.80;;;;;;5036226;28;20060;-79
2021/03/18 10:19:51;;;;;;;18.02;13.90;;;1.80;89.20;;;;;;5068961;28;20045;-79
2021/03/18 10:22:25;;;;;;;19.92;14.20;;;2.20;90.20;;;;;;5071876;28;20067;-78
2021/03/18 10:25:09;;;;;;;17.77;13.25;;;2.50;86.90;;;;;;5062442;28;20409;-79
2021/03/18 10:27:43;;;;;;;16.95;13.40;;;2.20;87.80;;;;;;5052083;28;20542;-78
2021/03/18 10:30:15;;;;;;;24.00;15.18;;;2.10;91.40;;;;;;5053581;28;20053;-78
2021/03/18 10:33:13;;;;;;;19.52;12.80;;;2.40;92.30;;;;;;5052612;28;20044;-79
2021/03/18 10:35:57;;;;;;;15.80;12.30;;;2.80;89.40;;;;;;5038331;28;20041;-79
2021/03/18 10:38:27;;;;;;;12.70;11.23;;;3.00;89.00;;;;;;5061024;28;20049;-80
2021/03/18 10:40:54;;;;;;;13.30;11.00;;;2.80;79.90;;;;;;5062534;28;20045;-81
2021/03/18 10:43:26;;;;;;;13.95;11.05;;;2.20;80.00;;;;;;5063531;28;20040;-77
2021/03/18 10:45:59;;;;;;;16.40;12.77;;;2.00;81.30;;;;;;5066624;28;20048;-78
2021/03/18 10:48:29;;;;;;;13.45;11.60;;;2.00;82.50;;;;;;5054025;28;20048;-77
2021/03/18 10:51:14;;;;;;;12.53;9.70;;;2.40;86.50;;;;;;5055264;28;20049;-78
2021/03/18 10:53:44;;;;;;;23.30;11.57;;;2.80;82.30;;;;;;5051671;28;20053;-78
2021/03/18 10:56:26;;;;;;;15.93;10.07;;;3.20;81.30;;;;;;5052605;28;20045;-78
2021/03/18 10:59:15;;;;;;;9.80;8.27;;;3.30;81.00;;;;;;5052008;28;20059;-78
2021/03/18 11:01:43;;;;;;;17.02;11.32;;;3.00;74.50;;;;;;5052043;28;20053;-78
2021/03/18 11:04:15;;;;;;;11.27;8.73;;;3.10;78.70;;;;;;5051363;28;20519;-78
2021/03/18 11:06:50;;;;;;;8.23;6.80;;;3.00;73.20;;;;;;5052158;28;20071;-77
2021/03/18 11:09:20;;;;;;;15.45;9.82;;;2.80;71.90;;;;;;5045577;28;20800;-79
2021/03/18 11:11:57;;;;;;;12.65;9.52;;;2.60;76.00;;;;;;5071795;28;20037;-78
2021/03/18 11:14:30;;;;;;;12.20;8.80;;;2.30;73.80;;;;;;5070346;28;20521;-78
2021/03/18 11:17:08;;;;;;;11.55;9.38;;;2.10;79.00;;;;;;5052339;28;20048;-79
2021/03/18 11:19:36;;;;;;;15.23;9.20;;;2.00;80.00;;;;;;5052082;28;20041;-80
2021/03/18 11:22:05;;;;;;;8.50;7.40;;;1.90;90.10;;;;;;5063704;28;20060;-79
2021/03/18 11:24:32;;;;;;;11.00;9.07;;;1.20;91.40;;;;;;5072690;28;20419;-79
2021/03/18 11:27:04;;;;;;;10.50;6.93;;;0.40;94.40;;;;;;5069126;28;20037;-80
2021/03/18 11:29:34;;;;;;;6.28;5.55;;;0.00;96.40;;;;;;5060386;28;20048;-78
2021/03/18 11:32:06;;;;;;;9.48;6.38;;;-0.20;97.00;;;;;;5059573;28;20041;-76
2021/03/18 11:34:38;;;;;;;;;;;-0.30;96.80;;;;;;5058370;28;20053;-78
2021/03/18 11:37:12;;;;;;;;;;;-0.30;97.20;;;;;;5061613;28;19927;-79
2021/03/18 11:39:41;;;;;;;10.23;6.32;;;-0.20;97.00;;;;;;5058338;28;19921;-77
2021/03/18 11:42:11;;;;;;;6.32;4.63;;;-0.10;96.50;;;;;;5064658;28;20048;-76
2021/03/18 11:44:39;;;;;;;7.20;5.20;;;-0.10;96.90;;;;;;5051660;28;20049;-76
2021/03/18 11:47:12;;;;;;;8.95;6.40;;;0.30;97.10;;;;;;5070524;28;20052;-77
2021/03/18 11:49:44;;;;;;;9.73;7.13;;;0.40;95.30;;;;;;5071247;28;20052;-78
2021/03/18 11:52:14;;;;;;;10.07;6.75;;;0.30;95.00;;;;;;5044962;28;20052;-76
2021/03/18 11:54:43;;;;;;;;;;;0.40;95.00;;;;;;5051463;28;20040;-77
2021/03/18 11:57:13;;;;;;;8.45;7.22;;;0.50;95.00;;;;;;5051633;28;20327;-77
2021/03/18 11:59:40;;;;;;;7.63;6.80;;;0.50;95.10;;;;;;5054484;28;20045;-77
2021/03/18 12:02:11;;;;;;;9.35;8.35;;;0.40;95.60;;;;;;5071552;28;20060;-77
2021/03/18 12:04:39;;;;;;;10.80;7.70;;;0.20;96.20;;;;;;5071314;28;20052;-79
2021/03/18 12:07:15;;;;;;;16.88;9.45;;;0.10;97.10;;;;;;5058491;28;20033;-79
2021/03/18 12:09:42;;;;;;;12.07;8.20;;;0.00;97.30;;;;;;5036717;28;20074;-79
2021/03/18 12:12:10;;;;;;;10.50;7.25;;;0.10;96.40;;;;;;5041527;28;20056;-78
2021/03/18 12:14:37;;;;;;;8.20;7.40;;;0.40;96.90;;;;;;5047574;28;20057;-79
2021/03/18 12:17:04;;;;;;;8.43;6.18;;;0.30;95.30;;;;;;5040216;28;20049;-79
2021/03/18 12:19:32;;;;;;;10.35;7.40;;;0.30;94.80;;;;;;5038367;28;20049;-78
2021/03/18 12:21:59;;;;;;;9.35;6.72;;;0.40;95.80;;;;;;5028086;28;20051;-78
2021/03/18 12:24:27;;;;;;;13.02;8.07;;;0.30;95.80;;;;;;5049870;28;20044;-79
2021/03/18 12:26:54;;;;;;;9.80;7.55;;;0.40;95.80;;;;;;5032757;28;20049;-78
2021/03/18 12:29:22;;;;;;;7.05;6.35;;;0.40;95.40;;;;;;5047712;28;20096;-78
2021/03/18 12:31:50;;;;;;;11.93;8.20;;;0.50;96.30;;;;;;5032178;28;20052;-78
2021/03/18 12:34:17;;;;;;;12.40;9.45;;;0.80;96.00;;;;;;5040269;28;20053;-79
2021/03/18 12:36:45;;;;;;;10.73;7.38;;;1.10;95.80;;;;;;5048333;28;20040;-79
2021/03/18 12:39:13;;;;;;;12.35;6.47;;;1.40;94.80;;;;;;5049849;28;20053;-78
2021/03/18 12:41:41;;;;;;;7.10;5.93;;;1.70;93.10;;;;;;5032455;28;20063;-78
2021/03/18 12:44:08;;;;;;;8.10;6.85;;;2.00;90.70;;;;;;5044249;28;20049;-78
2021/03/18 12:46:36;;;;;;;9.98;7.03;;;2.30;92.50;;;;;;5056676;28;20048;-80
2021/03/18 12:49:08;;;;;;;7.13;6.28;;;2.10;91.00;;;;;;5039689;28;20056;-80
2021/03/18 12:51:37;;;;;;;9.75;8.15;;;1.60;92.40;;;;;;5046709;28;20049;-80
2021/03/18 12:54:05;;;;;;;12.10;7.80;;;1.40;92.50;;;;;;5050679;28;20060;-79
2021/03/18 12:56:33;;;;;;;14.35;8.70;;;1.10;93.60;;;;;;5043334;28;20410;-80
2021/03/18 12:59:01;;;;;;;13.50;9.50;;;0.90;95.30;;;;;;5049305;28;20033;-79
2021/03/18 13:01:28;;;;;;;9.07;7.22;;;0.70;95.90;;;;;;5033156;28;20053;-80
2021/03/18 13:03:56;;;;;;;11.02;6.72;;;0.60;96.20;;;;;;5030130;28;20048;-80
2021/03/18 13:06:25;;;;;;;10.75;8.35;;;0.60;96.90;;;;;;5044613;28;20053;-81
2021/03/18 13:08:54;;;;;;;8.43;7.05;;;0.50;96.70;;;;;;5031323;28;20049;-80
2021/03/18 13:11:23;;;;;;;11.65;8.23;;;0.50;96.70;;;;;;5039735;28;20044;-79
2021/03/18 13:13:50;;;;;;;7.63;6.70;;;0.30;97.50;;;;;;5047906;28;20063;-80
2021/03/18 13:16:19;;;;;;;5.95;4.95;;;0.10;97.10;;;;;;5041516;28;20052;-80
2021/03/18 13:18:46;;;;;;;7.22;6.57;;;0.10;96.90;;;;;;5030090;28;20038;-79
2021/03/18 13:21:14;;;;;;;5.57;4.82;;;0.00;97.10;;;;;;5031705;28;20514;-79
2021/03/18 13:23:42;;;;;;;6.25;5.28;;;0.10;96.90;;;;;;5041499;28;20472;-80
2021/03/18 13:26:09;;;;;;;7.47;5.82;;;0.00;97.30;;;;;;5038439;28;20056;-79
2021/03/18 13:28:37;;;;;;;5.80;5.07;;;0.00;96.70;;;;;;5030400;28;20049;-79
2021/03/18 13:31:05;;;;;;;9.32;8.20;;;0.10;96.80;;;;;;5040012;28;20066;-80
2021/03/18 13:33:32;;;;;;;7.15;5.95;;;0.30;97.20;;;;;;5050548;28;20052;-80
2021/03/18 13:36:03;;;;;;;9.20;7.20;;;0.70;97.40;;;;;;5050180;28;20049;-79
2021/03/18 13:38:33;;;;;;;5.50;2.42;;;1.00;95.10;;;;;;5049481;28;20060;-79
2021/03/18 13:41:03;;;;;;;7.50;6.80;;;0.90;94.60;;;;;;5047333;28;20060;-79
2021/03/18 13:43:30;;;;;;;6.85;5.28;;;1.00;94.70;;;;;;5038153;28;20044;-79
2021/03/18 13:46:01;;;;;;;8.30;5.97;;;1.10;95.20;;;;;;5050136;28;20045;-80
2021/03/18 13:48:30;;;;;;;5.30;4.63;;;1.10;95.90;;;;;;5046756;28;20052;-80
2021/03/18 13:51:00;;;;;;;8.18;6.72;;;1.10;96.00;;;;;;5069421;28;20494;-80
2021/03/18 13:53:27;;;;;;;5.53;5.03;;;0.60;96.70;;;;;;5050590;28;20048;-80